Time;durP1;ratioP1;P1;durP2;ratioP2;P2;SDS_P1;SDS_P2;PMS_P1;PMS_P2;Temp;Humidity;BMP_temperature;BMP_pressure;BME280_temperature;BME280_humidity;BME280_pressure;Samples;Min_cycle;Max_cycle;Signal;HPM_P1;HPM_P2
2022/06/22 00:00:02;;;;;;;376.30;315.17;;;;;;;26.62;59.18;98930.34;407579;24;1440;-76
2022/06/22 00:00:15;;;;;;;374.20;310.20;;;;;;;26.61;59.46;98931.34;407945;24;889;-76
2022/06/22 00:00:28;;;;;;;372.50;308.75;;;;;;;26.61;59.46;98934.03;411450;24;1228;-76
2022/06/22 00:00:39;;;;;;;375.83;315.10;;;;;;;26.61;59.48;98928.66;407964;24;1255;-75
2022/06/22 00:01:09;;;;;;;375.95;318.40;;;;;;;26.61;59.14;98934.03;413565;23;1020;-75
2022/06/22 00:01:52;;;;;;;373.85;312.25;;;;;;;26.63;59.27;98937.38;411273;24;1334;-75
2022/06/22 00:02:07;;;;;;;376.13;314.45;;;;;;;26.63;59.34;98932.00;409297;24;1289;-76
2022/06/22 00:02:21;;;;;;;374.98;310.83;;;;;;;26.63;59.33;98937.38;411690;24;843;-76
2022/06/22 00:02:34;;;;;;;370.25;308.73;;;;;;;26.62;59.11;98938.38;411182;24;1802;-75
2022/06/22 00:02:45;;;;;;;372.88;317.80;;;;;;;26.63;59.34;98942.75;412942;23;808;-76
2022/06/22 00:02:56;;;;;;;374.60;319.08;;;;;;;26.63;59.06;98937.38;413534;23;1031;-76
2022/06/22 00:03:07;;;;;;;379.03;323.63;;;;;;;26.64;59.40;98946.25;411536;24;815;-76
2022/06/22 00:03:18;;;;;;;379.33;320.27;;;;;;;26.63;59.20;98937.38;409529;24;1282;-77
2022/06/22 00:03:28;;;;;;;376.50;317.90;;;;;;;26.64;59.12;98941.72;409746;24;814;-77
2022/06/22 00:03:39;;;;;;;374.90;316.52;;;;;;;26.64;59.16;98947.09;411575;24;1369;-77
2022/06/22 00:03:54;;;;;;;375.40;317.43;;;;;;;26.62;59.74;98946.44;411851;24;957;-76
2022/06/22 00:04:04;;;;;;;375.92;320.40;;;;;;;26.63;59.48;98948.09;408037;24;830;-76
2022/06/22 00:04:20;;;;;;;375.15;316.85;;;;;;;26.63;59.30;98953.47;409742;24;846;-76
2022/06/22 00:04:41;;;;;;;374.80;313.95;;;;;;;26.63;59.03;98942.75;409732;24;869;-76
2022/06/22 00:05:00;;;;;;;371.63;315.35;;;;;;;26.65;59.51;98951.44;409450;24;1089;-76
2022/06/22 00:05:19;;;;;;;373.98;319.05;;;;;;;26.64;59.22;98949.78;407443;24;826;-76
2022/06/22 00:05:49;;;;;;;371.00;315.67;;;;;;;26.63;59.58;98941.91;407515;24;846;-76
2022/06/22 00:06:00;;;;;;;368.92;311.38;;;;;;;26.66;59.26;98950.44;409681;24;948;-76
2022/06/22 00:06:25;;;;;;;370.63;315.20;;;;;;;26.66;59.37;98946.91;413744;23;805;-76
2022/06/22 00:06:48;;;;;;;375.02;315.33;;;;;;;26.65;59.08;98950.63;410814;24;1111;-76
2022/06/22 00:07:10;;;;;;;378.58;315.25;;;;;;;26.63;59.52;98947.28;411652;24;975;-75
2022/06/22 00:07:27;;;;;;;372.20;313.23;;;;;;;26.65;59.20;98953.31;413563;23;1031;-75
2022/06/22 00:07:43;;;;;;;369.70;312.73;;;;;;;26.65;59.26;98948.75;411605;24;905;-76
2022/06/22 00:07:55;;;;;;;369.85;312.70;;;;;;;26.63;59.54;98948.09;413036;23;2066;-76
2022/06/22 00:08:09;;;;;;;375.02;316.58;;;;;;;26.62;59.68;98941.06;413355;23;1486;-76
2022/06/22 00:08:22;;;;;;;375.10;320.05;;;;;;;26.63;59.36;98953.47;411818;24;866;-76
2022/06/22 00:08:35;;;;;;;370.85;319.00;;;;;;;26.63;59.53;98956.16;409449;24;826;-76
2022/06/22 00:08:46;;;;;;;370.80;319.67;;;;;;;26.66;59.79;98952.28;410622;24;1456;-76
2022/06/22 00:08:57;;;;;;;372.33;319.58;;;;;;;26.63;59.50;98949.97;411781;24;829;-77
2022/06/22 00:09:14;;;;;;;373.70;319.13;;;;;;;26.62;59.86;98949.13;411388;24;2191;-77
2022/06/22 00:09:30;;;;;;;372.23;314.98;;;;;;;26.62;59.48;98957.19;411486;24;821;-76
2022/06/22 00:09:41;;;;;;;369.83;311.23;;;;;;;26.62;59.81;98950.97;411634;24;888;-76
2022/06/22 00:10:03;;;;;;;370.35;312.63;;;;;;;26.61;59.64;98955.50;413722;23;1263;-76
2022/06/22 00:10:19;;;;;;;367.63;312.17;;;;;;;26.62;59.94;98946.44;411550;24;1291;-76
2022/06/22 00:10:32;;;;;;;365.48;312.42;;;;;;;26.64;59.81;98946.25;411764;24;780;-76
2022/06/22 00:10:51;;;;;;;368.83;315.63;;;;;;;26.62;59.78;98954.50;408640;24;873;-76
2022/06/22 00:11:07;;;;;;;374.00;316.77;;;;;;;26.62;59.48;98954.50;411721;24;857;-76
2022/06/22 00:11:17;;;;;;;373.10;315.23;;;;;;;26.63;59.64;98952.66;411656;24;826;-76
2022/06/22 00:11:28;;;;;;;374.63;315.67;;;;;;;26.62;59.88;98951.81;409501;24;1037;-76
2022/06/22 00:11:43;;;;;;;376.47;316.13;;;;;;;26.61;59.72;98944.78;409828;24;775;-76
2022/06/22 00:11:53;;;;;;;376.50;315.05;;;;;;;26.62;59.42;98954.50;409624;24;976;-76
2022/06/22 00:12:05;;;;;;;377.33;319.10;;;;;;;26.62;59.55;98954.50;409528;24;1053;-76
2022/06/22 00:12:25;;;;;;;371.45;313.42;;;;;;;26.61;59.77;98950.13;407778;24;1329;-76
2022/06/22 00:12:36;;;;;;;365.10;307.75;;;;;;;26.61;59.76;98955.50;409218;24;929;-76
2022/06/22 00:12:50;;;;;;;365.63;307.10;;;;;;;26.60;59.40;98953.84;411210;24;771;-76
2022/06/22 00:13:01;;;;;;;369.63;312.30;;;;;;;26.59;59.61;98957.53;409313;24;1360;-76
2022/06/22 00:13:20;;;;;;;370.30;315.47;;;;;;;26.59;59.63;98952.16;411451;24;798;-76
2022/06/22 00:13:31;;;;;;;370.02;316.23;;;;;;;26.57;59.44;98953.38;409666;24;1119;-76
2022/06/22 00:13:47;;;;;;;370.45;316.08;;;;;;;26.57;59.50;98954.19;409838;24;743;-76
2022/06/22 00:13:59;;;;;;;374.30;316.05;;;;;;;26.56;59.49;98952.53;413189;23;1051;-76
2022/06/22 00:14:16;;;;;;;374.75;313.13;;;;;;;26.57;59.60;98962.25;411737;24;889;-76
2022/06/22 00:14:48;;;;;;;371.83;311.73;;;;;;;26.54;59.87;98948.34;409614;24;885;-76
2022/06/22 00:15:00;;;;;;;368.70;315.98;;;;;;;26.54;59.55;98953.72;407645;24;1222;-76
2022/06/22 00:15:37;;;;;;;372.10;317.77;;;;;;;26.50;59.95;98948.72;409380;24;843;-76
2022/06/22 00:15:52;;;;;;;369.83;313.67;;;;;;;26.50;59.69;98953.25;404022;24;866;-76
2022/06/22 00:16:14;;;;;;;369.33;313.23;;;;;;;26.49;59.84;98965.00;409368;24;1345;-76
2022/06/22 00:16:32;;;;;;;369.98;312.80;;;;;;;26.50;60.16;98954.09;407529;24;1415;-76
2022/06/22 00:16:48;;;;;;;371.17;316.10;;;;;;;26.52;59.68;98960.09;406750;24;968;-75
2022/06/22 00:16:59;;;;;;;370.30;312.77;;;;;;;26.52;59.70;98960.09;409547;24;857;-75
2022/06/22 00:17:17;;;;;;;369.48;312.08;;;;;;;26.54;59.49;98954.56;407619;24;1416;-75
2022/06/22 00:17:37;;;;;;;370.30;315.45;;;;;;;26.57;59.49;98961.41;409513;24;784;-75
2022/06/22 00:17:47;;;;;;;371.17;314.67;;;;;;;26.57;59.40;98962.25;409743;24;818;-75
2022/06/22 00:17:58;;;;;;;372.07;315.00;;;;;;;26.57;59.70;98954.19;413174;23;1079;-75
2022/06/22 00:18:34;;;;;;;371.17;313.98;;;;;;;26.57;59.35;98956.06;413433;23;873;-75
2022/06/22 00:18:46;;;;;;;366.30;311.60;;;;;;;26.51;59.48;98961.13;412687;23;885;-75
2022/06/22 00:18:57;;;;;;;372.15;312.77;;;;;;;26.51;59.60;98952.25;409477;24;787;-75
2022/06/22 00:19:14;;;;;;;372.27;315.65;;;;;;;26.48;59.76;98961.47;409595;24;1202;-75
2022/06/22 00:19:33;;;;;;;371.60;313.15;;;;;;;26.49;59.53;98956.94;407681;24;956;-75
2022/06/22 00:19:43;;;;;;;367.65;313.80;;;;;;;26.48;59.41;98955.28;409422;24;1045;-75
2022/06/22 00:20:21;;;;;;;368.70;314.95;;;;;;;26.49;59.60;98954.25;409695;24;631;-75
2022/06/22 00:20:32;;;;;;;367.38;304.17;;;;;;;26.50;59.34;98958.63;409475;24;806;-76
2022/06/22 00:20:48;;;;;;;368.73;307.77;;;;;;;26.50;59.02;98954.09;410661;24;819;-75
2022/06/22 00:21:04;;;;;;;372.52;313.50;;;;;;;26.50;59.11;98958.63;411711;24;885;-75
2022/06/22 00:21:32;;;;;;;371.95;310.63;;;;;;;26.49;59.32;98952.41;409684;24;806;-75
2022/06/22 00:21:43;;;;;;;370.20;312.13;;;;;;;26.46;59.64;98957.31;409528;24;960;-75
2022/06/22 00:21:53;;;;;;;372.30;312.17;;;;;;;26.44;59.02;98953.97;405895;24;1200;-75
2022/06/22 00:22:04;;;;;;;370.80;307.60;;;;;;;26.46;59.45;98951.94;409796;24;1127;-75
2022/06/22 00:22:22;;;;;;;369.20;307.70;;;;;;;26.48;59.41;98955.28;411719;24;798;-75
2022/06/22 00:22:49;;;;;;;368.55;310.20;;;;;;;26.48;59.12;98955.28;409355;24;834;-75
2022/06/22 00:23:08;;;;;;;370.98;312.30;;;;;;;26.49;59.07;98956.94;409468;24;1008;-75
2022/06/22 00:23:35;;;;;;;371.60;308.55;;;;;;;26.50;58.97;98958.63;409576;24;870;-75
2022/06/22 00:23:48;;;;;;;368.40;308.98;;;;;;;26.48;58.83;98957.97;409529;24;767;-75
2022/06/22 00:24:00;;;;;;;372.27;313.73;;;;;;;26.49;59.28;98956.94;409202;24;889;-75
2022/06/22 00:24:22;;;;;;;374.83;315.48;;;;;;;26.49;59.28;98951.59;409303;24;826;-75
2022/06/22 00:24:39;;;;;;;370.88;306.15;;;;;;;26.45;59.19;98953.78;409366;24;866;-75
2022/06/22 00:25:12;;;;;;;367.52;297.63;;;;;;;26.43;59.23;98950.44;409277;24;846;-75
2022/06/22 00:25:31;;;;;;;368.23;307.33;;;;;;;26.46;59.40;98954.63;409595;24;799;-75
2022/06/22 00:25:42;;;;;;;371.00;312.70;;;;;;;26.47;58.84;98958.97;409839;24;1023;-75
2022/06/22 00:25:58;;;;;;;370.50;309.30;;;;;;;26.46;58.96;98954.63;409510;24;826;-75
2022/06/22 00:26:18;;;;;;;369.80;308.65;;;;;;;26.45;59.20;98956.47;409795;24;807;-75
2022/06/22 00:26:33;;;;;;;370.75;310.33;;;;;;;26.43;59.25;98952.31;407829;24;846;-75
2022/06/22 00:26:47;;;;;;;372.52;315.08;;;;;;;26.44;59.19;98953.97;408912;24;791;-75
2022/06/22 00:27:21;;;;;;;372.13;312.98;;;;;;;26.44;59.19;98954.81;409847;24;862;-75
2022/06/22 00:27:36;;;;;;;368.25;304.75;;;;;;;26.43;59.38;98950.44;411716;24;771;-76
2022/06/22 00:27:46;;;;;;;369.75;310.63;;;;;;;26.43;59.25;98953.13;411746;24;900;-75
2022/06/22 00:28:32;;;;;;;372.33;314.00;;;;;;;26.42;59.23;98954.19;411352;24;1195;-75
2022/06/22 00:29:04;;;;;;;369.30;311.17;;;;;;;26.43;59.51;98958.50;412348;23;966;-75
2022/06/22 00:29:14;;;;;;;368.48;307.65;;;;;;;26.45;59.39;98963.69;413386;23;1917;-76
2022/06/22 00:29:33;;;;;;;370.15;311.30;;;;;;;26.45;58.97;98955.63;413591;23;807;-76
2022/06/22 00:29:44;;;;;;;371.95;312.30;;;;;;;26.44;59.12;98960.16;411510;24;881;-76
2022/06/22 00:30:10;;;;;;;370.80;311.43;;;;;;;26.46;59.43;98965.38;410947;24;1031;-76
2022/06/22 00:30:31;;;;;;;367.77;310.23;;;;;;;26.47;59.58;98958.97;411672;24;855;-76
2022/06/22 00:30:45;;;;;;;372.40;313.05;;;;;;;26.46;59.20;98960.81;410591;24;945;-75
2022/06/22 00:31:15;;;;;;;373.17;313.50;;;;;;;26.43;59.08;98960.34;409756;24;874;-75
2022/06/22 00:31:31;;;;;;;372.83;318.08;;;;;;;26.43;59.24;98957.66;409486;24;825;-75
2022/06/22 00:31:43;;;;;;;372.10;316.15;;;;;;;26.41;59.65;98959.72;409816;24;897;-75
2022/06/22 00:31:58;;;;;;;371.75;315.75;;;;;;;26.41;59.30;98959.72;409684;24;897;-75
2022/06/22 00:32:17;;;;;;;374.08;314.42;;;;;;;26.40;59.32;98964.25;411730;24;1372;-75
2022/06/22 00:32:28;;;;;;;371.40;314.40;;;;;;;26.42;59.32;98956.03;412409;23;837;-75
2022/06/22 00:32:38;;;;;;;372.50;317.17;;;;;;;26.42;59.20;98956.88;412343;23;787;-76
2022/06/22 00:32:53;;;;;;;374.63;318.80;;;;;;;26.43;59.49;98963.88;413371;23;810;-75
2022/06/22 00:33:16;;;;;;;374.00;316.20;;;;;;;26.42;58.99;98962.22;409694;24;1090;-75
2022/06/22 00:33:26;;;;;;;373.40;313.83;;;;;;;26.43;59.49;98965.72;409557;24;1707;-75
2022/06/22 00:33:37;;;;;;;371.83;312.90;;;;;;;26.43;59.21;98963.03;409789;24;755;-75
2022/06/22 00:34:02;;;;;;;370.52;312.30;;;;;;;26.41;59.21;98968.63;409783;24;810;-75
2022/06/22 00:34:13;;;;;;;369.38;312.63;;;;;;;26.40;59.40;98960.75;411638;24;901;-75
2022/06/22 00:34:26;;;;;;;371.38;317.63;;;;;;;26.39;59.21;98961.75;411613;24;980;-75
2022/06/22 00:34:36;;;;;;;371.67;315.27;;;;;;;26.39;59.70;98965.28;410665;24;823;-75
2022/06/22 00:34:47;;;;;;;371.87;312.17;;;;;;;26.39;59.51;98965.28;411289;24;783;-75
2022/06/22 00:34:57;;;;;;;372.40;311.13;;;;;;;26.40;59.47;98963.44;409528;24;1114;-75
2022/06/22 00:35:40;;;;;;;374.25;311.88;;;;;;;26.41;59.52;98970.47;407537;24;1644;-75
2022/06/22 00:36:11;;;;;;;370.20;308.15;;;;;;;26.42;59.46;98967.59;407893;24;849;-76
2022/06/22 00:36:22;;;;;;;371.95;314.25;;;;;;;26.39;59.38;98957.22;409655;24;1046;-76
2022/06/22 00:36:37;;;;;;;371.80;314.90;;;;;;;26.39;59.24;98962.59;409519;24;790;-76
2022/06/22 00:37:02;;;;;;;367.52;312.48;;;;;;;26.38;59.34;98966.28;411162;24;1560;-76
2022/06/22 00:37:17;;;;;;;370.17;313.65;;;;;;;26.34;59.71;98959.59;411285;24;1278;-76
2022/06/22 00:37:29;;;;;;;370.20;313.48;;;;;;;26.32;59.69;98961.63;411543;24;854;-76
2022/06/22 00:37:40;;;;;;;373.42;318.15;;;;;;;26.33;59.22;98962.47;409771;24;759;-76
2022/06/22 00:37:52;;;;;;;375.65;315.38;;;;;;;26.33;59.66;98962.47;411476;24;1288;-76
2022/06/22 00:38:05;;;;;;;374.73;312.10;;;;;;;26.32;59.45;98967.00;409791;24;826;-76
2022/06/22 00:38:30;;;;;;;372.60;310.92;;;;;;;26.33;59.69;98960.63;409570;24;854;-76
2022/06/22 00:38:40;;;;;;;369.05;314.05;;;;;;;26.35;59.67;98957.75;409976;23;834;-76
2022/06/22 00:38:51;;;;;;;372.05;315.15;;;;;;;26.35;59.65;98960.44;409338;24;775;-76
2022/06/22 00:39:27;;;;;;;373.53;315.50;;;;;;;26.38;59.55;98963.59;409812;24;951;-76
2022/06/22 00:39:42;;;;;;;370.08;312.58;;;;;;;26.37;59.66;98959.25;405842;24;1025;-76
2022/06/22 00:39:56;;;;;;;370.73;315.55;;;;;;;26.37;59.47;98961.09;405869;24;1168;-76
2022/06/22 00:40:13;;;;;;;371.73;318.88;;;;;;;26.38;59.63;98960.09;405708;24;1382;-76
2022/06/22 00:40:23;;;;;;;371.80;317.40;;;;;;;26.36;59.55;98960.25;405787;24;1078;-76
2022/06/22 00:40:34;;;;;;;369.27;315.02;;;;;;;26.36;59.17;98962.94;409216;24;720;-76
2022/06/22 00:40:48;;;;;;;370.45;316.58;;;;;;;26.37;59.57;98964.63;406902;24;844;-76
2022/06/22 00:41:19;;;;;;;370.60;314.75;;;;;;;26.38;59.14;98965.44;409626;24;945;-76
2022/06/22 00:41:29;;;;;;;369.73;313.27;;;;;;;26.38;59.44;98955.56;411574;24;1498;-76
2022/06/22 00:41:40;;;;;;;372.05;314.60;;;;;;;26.38;59.41;98960.91;411365;24;1438;-76
2022/06/22 00:41:55;;;;;;;372.37;311.97;;;;;;;26.39;59.33;98962.59;411689;24;775;-76
2022/06/22 00:42:30;;;;;;;368.38;304.98;;;;;;;26.36;59.31;98960.25;411534;24;850;-76
2022/06/22 00:42:46;;;;;;;370.23;313.35;;;;;;;26.35;59.47;98957.75;399276;24;810;-76
2022/06/22 00:42:56;;;;;;;371.13;311.17;;;;;;;26.35;59.47;98963.13;404309;24;1332;-76
2022/06/22 00:43:07;;;;;;;372.13;310.50;;;;;;;26.33;59.30;98962.47;409791;24;833;-76
2022/06/22 00:43:17;;;;;;;373.50;310.90;;;;;;;26.34;59.37;98958.78;411677;24;1218;-76
2022/06/22 00:43:30;;;;;;;370.90;312.25;;;;;;;26.34;59.60;98959.59;413404;23;2077;-76
2022/06/22 00:43:40;;;;;;;368.35;309.33;;;;;;;26.33;59.74;98962.47;411683;24;936;-76
2022/06/22 00:43:51;;;;;;;367.70;311.40;;;;;;;26.33;59.56;98957.94;411744;24;790;-76
2022/06/22 00:44:08;;;;;;;370.90;311.10;;;;;;;26.30;59.59;98963.63;411638;24;964;-76
2022/06/22 00:44:19;;;;;;;371.45;313.48;;;;;;;26.28;59.86;98954.09;411604;24;864;-76
2022/06/22 00:44:31;;;;;;;371.25;315.42;;;;;;;26.28;59.69;98954.09;409725;24;799;-76
2022/06/22 00:44:48;;;;;;;371.40;313.25;;;;;;;26.26;59.74;98956.94;408677;24;1020;-76
2022/06/22 00:45:08;;;;;;;371.73;312.50;;;;;;;26.26;59.89;98956.13;411257;24;1092;-76
2022/06/22 00:45:25;;;;;;;373.98;314.38;;;;;;;26.27;59.60;98957.78;411372;24;786;-76
2022/06/22 00:45:36;;;;;;;373.92;312.80;;;;;;;26.27;59.53;98957.78;413632;23;821;-76
2022/06/22 00:45:47;;;;;;;373.02;314.15;;;;;;;26.25;59.96;98965.19;411587;24;1040;-76
2022/06/22 00:45:57;;;;;;;373.37;312.47;;;;;;;26.24;59.90;98958.13;411784;24;842;-76
2022/06/22 00:46:16;;;;;;;370.75;312.80;;;;;;;26.23;60.01;98959.16;409491;24;771;-76
2022/06/22 00:46:26;;;;;;;370.38;311.23;;;;;;;26.24;59.77;98958.97;411485;24;863;-76
2022/06/22 00:46:41;;;;;;;372.40;309.17;;;;;;;26.23;59.69;98959.16;410459;24;1184;-76
2022/06/22 00:47:04;;;;;;;373.10;312.05;;;;;;;26.22;59.77;98952.13;413476;23;846;-76
2022/06/22 00:47:36;;;;;;;375.65;311.85;;;;;;;26.24;59.70;98958.13;409567;24;811;-76
2022/06/22 00:47:54;;;;;;;371.35;309.25;;;;;;;26.25;59.81;98954.44;409457;24;1136;-77
2022/06/22 00:48:07;;;;;;;370.75;307.30;;;;;;;26.25;59.69;98954.44;409325;24;902;-77
2022/06/22 00:48:21;;;;;;;367.42;303.08;;;;;;;26.26;59.71;98965.00;409628;24;1518;-77
2022/06/22 00:48:33;;;;;;;369.33;303.77;;;;;;;26.28;59.63;98962.13;409522;24;859;-77
2022/06/22 00:48:43;;;;;;;373.67;310.27;;;;;;;26.26;59.80;98962.31;406729;24;811;-76
2022/06/22 00:48:54;;;;;;;374.80;313.15;;;;;;;26.25;59.57;98965.19;413192;23;1359;-76
2022/06/22 00:49:07;;;;;;;376.83;315.30;;;;;;;26.22;59.62;98965.53;413408;23;1167;-76
2022/06/22 00:49:18;;;;;;;376.65;312.73;;;;;;;26.21;59.65;98953.13;411535;24;1909;-76
2022/06/22 00:49:29;;;;;;;373.30;310.60;;;;;;;26.21;59.89;98959.34;407600;24;1234;-76
2022/06/22 00:49:42;;;;;;;373.13;314.67;;;;;;;26.21;59.44;98959.34;407952;24;902;-75
2022/06/22 00:49:54;;;;;;;370.30;314.70;;;;;;;26.23;59.92;98961.84;407779;24;1218;-75
2022/06/22 00:50:12;;;;;;;373.23;314.17;;;;;;;26.24;60.01;98966.19;409377;24;1273;-75
2022/06/22 00:50:37;;;;;;;372.67;310.15;;;;;;;26.26;59.97;98972.22;411435;24;814;-75
2022/06/22 00:51:01;;;;;;;374.10;311.55;;;;;;;26.25;59.74;98965.19;411327;24;1098;-75
2022/06/22 00:51:16;;;;;;;376.17;314.38;;;;;;;26.23;59.54;98961.84;411510;24;910;-75
2022/06/22 00:51:30;;;;;;;375.35;307.77;;;;;;;26.24;59.57;98964.34;409623;24;1476;-75
2022/06/22 00:51:41;;;;;;;374.88;308.48;;;;;;;26.25;59.77;98955.28;409539;24;914;-75
2022/06/22 00:51:51;;;;;;;372.17;307.67;;;;;;;26.26;59.66;98961.47;409636;24;1522;-75
2022/06/22 00:52:05;;;;;;;371.08;307.80;;;;;;;26.26;59.55;98964.16;407780;24;1702;-75
2022/06/22 00:52:25;;;;;;;367.58;304.60;;;;;;;26.25;59.79;98954.44;409793;24;739;-75
2022/06/22 00:52:40;;;;;;;369.90;306.60;;;;;;;26.24;59.39;98958.97;410521;24;857;-75
2022/06/22 00:52:59;;;;;;;372.35;311.92;;;;;;;26.24;59.79;98958.13;411039;24;942;-75
2022/06/22 00:53:13;;;;;;;373.10;315.23;;;;;;;26.24;59.88;98958.13;409578;24;1413;-75
2022/06/22 00:53:33;;;;;;;372.10;308.90;;;;;;;26.24;59.58;98958.97;407678;24;1357;-75
2022/06/22 00:53:55;;;;;;;367.67;300.45;;;;;;;26.24;59.44;98958.13;407524;24;961;-75
2022/06/22 00:54:06;;;;;;;371.45;308.13;;;;;;;26.25;59.42;98959.81;407749;24;1390;-75
2022/06/22 00:54:23;;;;;;;371.40;307.30;;;;;;;26.24;59.52;98960.81;411458;24;1267;-75
2022/06/22 00:54:34;;;;;;;373.52;306.13;;;;;;;26.22;59.49;98957.47;409130;24;818;-74
2022/06/22 00:54:44;;;;;;;373.08;306.83;;;;;;;26.24;59.68;98960.81;408811;24;1211;-75
2022/06/22 00:54:54;;;;;;;375.27;309.13;;;;;;;26.23;59.31;98959.16;409627;24;1085;-75
2022/06/22 00:55:15;;;;;;;376.43;308.93;;;;;;;26.23;59.53;98959.16;407663;24;732;-75
2022/06/22 00:55:35;;;;;;;373.73;310.10;;;;;;;26.22;59.70;98971.72;409551;24;842;-75
2022/06/22 00:55:51;;;;;;;371.42;308.75;;;;;;;26.23;59.53;98965.34;409406;24;924;-75
2022/06/22 00:56:24;;;;;;;370.83;310.60;;;;;;;26.23;59.18;98962.66;407579;24;1291;-75
2022/06/22 00:57:00;;;;;;;366.60;303.48;;;;;;;26.23;59.55;98961.84;409162;24;893;-75
2022/06/22 00:57:19;;;;;;;371.77;307.27;;;;;;;26.22;59.77;98962.84;409540;24;823;-75
2022/06/22 00:57:34;;;;;;;370.15;305.42;;;;;;;26.22;59.55;98962.84;411639;24;869;-75
2022/06/22 00:57:48;;;;;;;370.25;302.45;;;;;;;26.24;59.45;98952.78;409687;24;790;-75
2022/06/22 00:58:21;;;;;;;370.83;306.92;;;;;;;26.22;59.80;98963.69;411603;24;794;-75
2022/06/22 00:58:57;;;;;;;370.08;306.98;;;;;;;26.23;59.52;98967.19;407442;24;833;-75
2022/06/22 00:59:24;;;;;;;369.95;306.70;;;;;;;26.22;59.83;98963.69;405698;24;1089;-75
2022/06/22 00:59:48;;;;;;;367.33;301.23;;;;;;;26.20;59.67;98963.03;405811;24;1079;-75
2022/06/22 01:00:05;;;;;;;372.58;306.38;;;;;;;26.19;59.98;98967.56;406567;24;1126;-75
2022/06/22 01:00:20;;;;;;;373.05;307.85;;;;;;;26.20;60.03;98973.75;409472;24;1427;-75
2022/06/22 01:00:33;;;;;;;372.17;311.60;;;;;;;26.18;59.92;98971.25;407609;24;1272;-75
2022/06/22 01:01:06;;;;;;;374.92;313.48;;;;;;;26.18;59.87;98971.25;410683;24;786;-75
2022/06/22 01:01:24;;;;;;;368.10;306.33;;;;;;;26.20;60.05;98968.38;411305;24;781;-76
2022/06/22 01:01:45;;;;;;;370.60;308.02;;;;;;;26.21;59.96;98974.59;409775;24;744;-75
2022/06/22 01:02:10;;;;;;;376.58;312.08;;;;;;;26.18;60.07;98965.88;407852;24;925;-75
2022/06/22 01:02:23;;;;;;;373.98;310.35;;;;;;;26.16;60.24;98972.44;407524;24;818;-75
2022/06/22 01:02:54;;;;;;;372.83;310.05;;;;;;;26.17;60.09;98974.09;407588;24;815;-76
2022/06/22 01:03:15;;;;;;;371.30;306.83;;;;;;;26.17;59.84;98964.22;411389;24;929;-76
2022/06/22 01:03:41;;;;;;;372.23;307.50;;;;;;;26.17;60.10;98977.63;409694;24;918;-76
2022/06/22 01:04:04;;;;;;;366.48;303.75;;;;;;;26.17;60.63;98968.75;409583;24;921;-76
2022/06/22 01:04:39;;;;;;;368.08;304.33;;;;;;;26.16;60.60;98978.63;405742;24;903;-75
2022/06/22 01:05:11;;;;;;;370.45;310.67;;;;;;;26.17;60.20;98979.47;407575;24;1043;-75
2022/06/22 01:05:36;;;;;;;373.40;310.25;;;;;;;26.16;60.35;98978.63;407807;24;740;-75
2022/06/22 01:06:14;;;;;;;370.77;308.85;;;;;;;26.20;60.49;98984.50;409686;24;698;-77
2022/06/22 01:06:42;;;;;;;370.50;307.55;;;;;;;26.16;60.55;98981.31;405532;24;869;-76
2022/06/22 01:07:02;;;;;;;367.88;306.15;;;;;;;26.16;60.36;98986.69;405810;24;870;-76
2022/06/22 01:07:27;;;;;;;372.33;309.02;;;;;;;26.13;60.00;98979.00;403738;24;908;-76
2022/06/22 01:08:02;;;;;;;369.02;308.40;;;;;;;26.15;60.35;98982.34;411717;24;861;-76
2022/06/22 01:08:22;;;;;;;368.92;302.15;;;;;;;26.14;60.30;98986.03;403762;24;874;-76
2022/06/22 01:08:40;;;;;;;370.48;306.77;;;;;;;26.15;60.27;98985.03;407080;24;1106;-76
2022/06/22 01:08:54;;;;;;;372.15;305.15;;;;;;;26.15;60.21;98986.88;409692;24;890;-77
2022/06/22 01:09:27;;;;;;;375.75;312.25;;;;;;;26.15;60.30;98982.34;409555;24;1348;-77
2022/06/22 01:09:49;;;;;;;372.38;309.30;;;;;;;26.15;60.37;98978.81;408764;24;1050;-76
2022/06/22 01:10:04;;;;;;;369.30;304.45;;;;;;;26.17;60.02;98983.00;411352;24;1089;-76
2022/06/22 01:10:43;;;;;;;366.52;298.45;;;;;;;26.17;60.23;98985.69;413254;23;1547;-76
2022/06/22 01:11:06;;;;;;;367.65;307.17;;;;;;;26.16;60.39;98985.84;413402;23;861;-76
2022/06/22 01:12:36;;;;;;;364.70;303.08;;;;;;;26.14;60.46;98983.34;411513;24;678;-76
2022/06/22 01:12:53;;;;;;;370.50;308.60;;;;;;;26.12;60.39;98988.06;405782;24;980;-77
2022/06/22 01:13:25;;;;;;;373.80;312.38;;;;;;;26.12;60.42;98989.91;407766;24;1036;-77
2022/06/22 01:13:43;;;;;;;361.70;299.70;;;;;;;26.12;60.48;98988.06;405667;24;776;-77
2022/06/22 01:13:53;;;;;;;362.95;300.30;;;;;;;26.13;60.07;98988.88;405912;24;822;-77
2022/06/22 01:14:05;;;;;;;367.83;305.65;;;;;;;26.12;60.28;98993.41;408202;24;1357;-76
2022/06/22 01:14:42;;;;;;;373.77;311.30;;;;;;;26.12;60.36;98993.41;413640;23;968;-76
2022/06/22 01:15:15;;;;;;;370.65;312.52;;;;;;;26.13;60.57;98988.88;411398;23;1285;-76
2022/06/22 01:15:32;;;;;;;366.13;300.33;;;;;;;26.11;60.40;98991.75;411615;24;870;-76
2022/06/22 01:15:55;;;;;;;368.25;305.05;;;;;;;26.11;60.26;98991.75;405610;24;1399;-76
2022/06/22 01:16:20;;;;;;;367.40;303.17;;;;;;;26.11;60.29;98991.75;407822;24;878;-76
2022/06/22 01:16:35;;;;;;;367.27;306.17;;;;;;;26.11;60.19;98997.13;409163;24;846;-76
2022/06/22 01:16:46;;;;;;;365.80;302.70;;;;;;;26.11;60.16;98997.13;410710;24;1250;-76
2022/06/22 01:16:57;;;;;;;368.75;303.50;;;;;;;26.10;60.20;98995.44;409728;24;858;-76
2022/06/22 01:17:13;;;;;;;374.52;307.95;;;;;;;26.11;60.07;98991.75;407611;24;834;-76
2022/06/22 01:17:34;;;;;;;374.20;311.63;;;;;;;26.11;60.15;98997.13;407655;24;873;-76
2022/06/22 01:18:12;;;;;;;364.75;300.30;;;;;;;26.11;60.43;98997.13;409571;24;882;-76
2022/06/22 01:18:32;;;;;;;366.23;305.75;;;;;;;26.10;60.33;98992.75;409660;24;881;-76
2022/06/22 01:18:46;;;;;;;368.95;305.52;;;;;;;26.11;60.43;98996.28;408706;24;795;-76
2022/06/22 01:19:10;;;;;;;371.02;308.00;;;;;;;26.10;60.50;99000.81;411565;24;881;-76
2022/06/22 01:19:23;;;;;;;372.05;306.42;;;;;;;26.11;60.37;99002.47;411622;24;965;-76
2022/06/22 01:19:36;;;;;;;366.30;300.35;;;;;;;26.11;60.21;99002.47;411800;24;794;-76
2022/06/22 01:19:58;;;;;;;364.63;297.65;;;;;;;26.11;60.15;99007.00;411638;24;853;-76
2022/06/22 01:20:35;;;;;;;366.50;296.08;;;;;;;26.10;60.16;98995.44;413532;23;821;-76
2022/06/22 01:21:02;;;;;;;370.02;305.08;;;;;;;26.11;60.56;99002.47;412976;23;747;-77
2022/06/22 01:21:17;;;;;;;372.63;306.60;;;;;;;26.10;60.22;99006.16;411247;24;955;-77
2022/06/22 01:21:45;;;;;;;370.88;305.15;;;;;;;26.07;60.41;99001.16;415326;23;1295;-76
2022/06/22 01:22:17;;;;;;;370.85;304.05;;;;;;;26.09;60.54;99001.81;411518;24;1942;-76
2022/06/22 01:22:52;;;;;;;363.15;298.85;;;;;;;26.06;60.88;99004.84;411726;24;901;-76
2022/06/22 01:23:26;;;;;;;370.25;308.05;;;;;;;26.06;61.00;99002.16;407631;24;913;-76
2022/06/22 01:24:37;;;;;;;369.10;299.83;;;;;;;26.06;61.03;99004.84;407990;24;903;-76
2022/06/22 01:25:22;;;;;;;371.95;307.85;;;;;;;26.05;60.91;99003.19;408438;24;898;-76
2022/06/22 01:25:50;;;;;;;367.10;302.80;;;;;;;26.03;61.18;99005.19;407609;24;870;-76
2022/06/22 01:26:23;;;;;;;368.85;302.80;;;;;;;26.01;61.10;99004.53;406083;24;905;-76
2022/06/22 01:27:11;;;;;;;369.50;303.80;;;;;;;26.00;61.17;99010.91;405377;24;846;-76
2022/06/22 01:27:32;;;;;;;374.83;316.35;;;;;;;25.97;61.16;99005.09;407646;24;853;-76
2022/06/22 01:27:43;;;;;;;369.10;309.02;;;;;;;25.96;61.31;99001.59;407638;24;1012;-76